createdAt,value
2019-01-21T00:01:48.049Z,-5.56
2019-01-21T00:04:36.996Z,-5.54
2019-01-21T00:07:25.887Z,-5.65
2019-01-21T00:10:14.768Z,-5.49
2019-01-21T00:19:13.276Z,-5.60
2019-01-21T00:24:56.480Z,-7.47
2019-01-21T00:27:45.328Z,-5.88
2019-01-21T00:30:26.904Z,-5.81
2019-01-21T00:33:15.713Z,-5.95
2019-01-21T00:36:04.580Z,-5.83
2019-01-21T00:38:53.403Z,-5.89
2019-01-21T00:41:42.201Z,-7.81
2019-01-21T00:44:24.251Z,-5.92
2019-01-21T00:47:13.047Z,-5.99
2019-01-21T00:50:01.861Z,-6.04
2019-01-21T00:52:50.727Z,-6.27
2019-01-21T00:55:39.609Z,-6.11
2019-01-21T00:58:28.420Z,-6.03
2019-01-21T01:01:17.295Z,-6.06
2019-01-21T01:04:06.670Z,-8.27
2019-01-21T01:06:55.553Z,-6.40
2019-01-21T01:09:44.399Z,-6.33
2019-01-21T01:12:33.248Z,-6.31
2019-01-21T01:15:22.103Z,-6.32
2019-01-21T01:18:11.067Z,-6.31
2019-01-21T01:20:59.933Z,-6.40
2019-01-21T01:23:48.873Z,-6.38
2019-01-21T01:26:38.161Z,-6.45
2019-01-21T01:29:46.038Z,-6.46
2019-01-21T01:32:27.648Z,-6.32
2019-01-21T01:38:31.280Z,-6.38
2019-01-21T01:41:20.131Z,-6.32
2019-01-21T01:47:16.756Z,-6.30
2019-01-21T01:50:26.539Z,-6.44
2019-01-21T01:56:23.234Z,-6.43
2019-01-21T01:59:12.119Z,-6.52
2019-01-21T02:02:00.984Z,-6.56
2019-01-21T02:04:49.884Z,-6.76
2019-01-21T02:07:38.698Z,-8.07
2019-01-21T02:10:27.778Z,-6.79
2019-01-21T02:13:16.609Z,-8.91
2019-01-21T02:16:05.492Z,-6.77
2019-01-21T02:18:54.291Z,-6.85
2019-01-21T02:24:58.969Z,-6.94
2019-01-21T02:28:28.196Z,-7.31
2019-01-21T02:31:40.931Z,-6.78
2019-01-21T02:34:48.978Z,-6.70
2019-01-21T02:38:16.486Z,-8.90
2019-01-21T02:41:26.237Z,-6.75
2019-01-21T02:44:53.746Z,-8.96
2019-01-21T02:48:03.460Z,-8.17
2019-01-21T02:51:30.960Z,-6.89
2019-01-21T02:54:58.464Z,-7.05
2019-01-21T02:58:25.946Z,-7.20
2019-01-21T03:01:35.666Z,-7.13
2019-01-21T03:05:03.176Z,-7.20
2019-01-21T03:08:12.929Z,-7.26
2019-01-21T03:11:22.650Z,-7.33
2019-01-21T03:14:32.353Z,-9.13
2019-01-21T03:17:42.128Z,-7.34
2019-01-21T03:21:09.644Z,-7.31
2019-01-21T03:24:37.136Z,-7.27
2019-01-21T03:27:46.853Z,-9.26
2019-01-21T03:34:13.056Z,-8.16
2019-01-21T03:36:59.347Z,-8.72
2019-01-21T03:40:26.954Z,-7.49
2019-01-21T03:43:54.469Z,-7.39
2019-01-21T03:46:37.841Z,-7.43
2019-01-21T03:50:05.568Z,-7.55
2019-01-21T03:53:15.337Z,-7.79
2019-01-21T03:56:25.261Z,-7.72
2019-01-21T03:59:35.011Z,-7.51
2019-01-21T04:02:44.805Z,-7.63
2019-01-21T04:05:54.604Z,-7.92
2019-01-21T04:09:22.176Z,-7.84
2019-01-21T04:12:31.973Z,-9.84
2019-01-21T04:15:41.834Z,-7.84
2019-01-21T04:18:51.574Z,-7.72
2019-01-21T04:22:19.125Z,-7.65
2019-01-21T04:25:28.835Z,-7.64
2019-01-21T04:28:56.323Z,-7.61
2019-01-21T04:32:06.052Z,-9.78
2019-01-21T04:35:15.752Z,-7.90
2019-01-21T04:38:43.260Z,-7.80
2019-01-21T04:41:53.158Z,-7.84
2019-01-21T04:45:20.641Z,-9.04
2019-01-21T04:48:03.841Z,-7.88
2019-01-21T04:51:13.548Z,-8.67
2019-01-21T04:54:25.037Z,-7.84
2019-01-21T04:57:52.524Z,-8.63
2019-01-21T05:01:02.302Z,-7.89
2019-01-21T05:04:29.805Z,-7.86
2019-01-21T05:07:57.297Z,-7.98
2019-01-21T05:11:07.065Z,-7.97
2019-01-21T05:14:34.537Z,-8.15
2019-01-21T05:17:44.260Z,-8.02
2019-01-21T05:21:11.760Z,-8.12
2019-01-21T05:24:21.514Z,-8.12
2019-01-21T05:27:49.029Z,-8.07
2019-01-21T05:31:16.569Z,-8.16
2019-01-21T05:34:26.335Z,-9.12
2019-01-21T05:37:36.105Z,-8.20
2019-01-21T05:40:45.852Z,-9.66
2019-01-21T05:43:55.625Z,-8.14
2019-01-21T05:47:23.130Z,-8.24
2019-01-21T05:50:32.853Z,-8.36
2019-01-21T05:54:00.601Z,-10.46
2019-01-21T05:57:10.328Z,-8.35
2019-01-21T06:00:37.841Z,-8.32
2019-01-21T06:04:05.578Z,-8.23
2019-01-21T06:07:33.092Z,-8.26
2019-01-21T06:10:42.819Z,-8.08
2019-01-21T06:13:52.615Z,-8.27
2019-01-21T06:17:02.323Z,-8.14
2019-01-21T06:20:29.837Z,-9.55
2019-01-21T06:23:57.327Z,-8.33
2019-01-21T06:27:24.837Z,-9.02
2019-01-21T06:30:34.588Z,-8.14
2019-01-21T06:34:02.099Z,-8.14
2019-01-21T06:36:47.755Z,-8.19
2019-01-21T06:39:57.510Z,-8.20
2019-01-21T06:43:25.024Z,-10.05
2019-01-21T06:46:52.776Z,-8.11
2019-01-21T06:50:20.262Z,-8.31
2019-01-21T06:53:47.752Z,-8.67
2019-01-21T06:57:15.261Z,-8.58
2019-01-21T07:00:42.779Z,-8.39
2019-01-21T07:03:52.653Z,-8.31
2019-01-21T07:07:20.134Z,-10.20
2019-01-21T07:10:47.629Z,-8.26
2019-01-21T07:14:15.144Z,-10.10
2019-01-21T07:20:55.160Z,-8.24
2019-01-21T07:24:04.971Z,-8.18
2019-01-21T07:27:14.682Z,-8.45
2019-01-21T07:30:42.169Z,-9.14
2019-01-21T07:33:51.907Z,-8.12
2019-01-21T07:36:37.836Z,-10.06
2019-01-21T07:40:05.347Z,-8.29
2019-01-21T07:43:15.111Z,-10.32
2019-01-21T07:46:24.842Z,-8.10
2019-01-21T07:49:52.330Z,-8.43
2019-01-21T07:53:19.843Z,-8.26
2019-01-21T07:56:29.562Z,-9.87
2019-01-21T07:59:57.087Z,-7.95
2019-01-21T08:03:06.908Z,-8.71
2019-01-21T08:06:16.617Z,-7.82
2019-01-21T08:09:26.381Z,-7.69
2019-01-21T08:12:53.892Z,-9.83
2019-01-21T08:16:21.380Z,-8.97
2019-01-21T08:19:48.886Z,-7.71
2019-01-21T08:23:16.379Z,-7.66
2019-01-21T08:26:26.147Z,-8.30
2019-01-21T08:29:53.638Z,-7.23
2019-01-21T08:33:21.145Z,-7.18
2019-01-21T08:39:23.149Z,-6.88
2019-01-21T08:42:51.002Z,-6.77
2019-01-21T08:46:21.476Z,-7.01
2019-01-21T08:49:30.765Z,-6.47
2019-01-21T08:52:59.170Z,-7.70
2019-01-21T08:56:09.038Z,-7.85
2019-01-21T08:59:18.709Z,-5.88
2019-01-21T09:02:28.427Z,-7.61
2019-01-21T09:05:55.931Z,-5.62
2019-01-21T09:09:05.634Z,-5.78
2019-01-21T09:12:15.349Z,-7.18
2019-01-21T09:15:42.858Z,-5.41
2019-01-21T09:19:10.366Z,-6.59
2019-01-21T09:22:20.126Z,-5.21
2019-01-21T09:25:29.843Z,-6.67
2019-01-21T09:28:39.593Z,-5.77
2019-01-21T09:31:49.329Z,-4.49
2019-01-21T09:35:16.814Z,-4.46
2019-01-21T09:38:25.481Z,-4.38
2019-01-21T09:41:35.193Z,-4.17
2019-01-21T09:44:45.267Z,-4.92
2019-01-21T09:47:33.025Z,-4.08
2019-01-21T09:50:21.831Z,-5.74
2019-01-21T09:53:10.699Z,-3.80
2019-01-21T09:55:59.529Z,-3.98
2019-01-21T10:02:38.215Z,-3.71
2019-01-21T10:05:47.942Z,-3.48
2019-01-21T10:09:15.451Z,-3.45
2019-01-21T10:12:42.940Z,-3.30
2019-01-21T10:15:52.710Z,-3.09
2019-01-21T10:19:20.212Z,-2.83
2019-01-21T10:22:29.932Z,-2.49
2019-01-21T10:25:57.417Z,-2.25
2019-01-21T10:29:24.931Z,-1.99
2019-01-21T10:32:52.450Z,-3.48
2019-01-21T10:36:02.148Z,-1.76
2019-01-21T10:39:04.015Z,-3.40
2019-01-21T10:42:31.505Z,-1.66
2019-01-21T10:45:59.062Z,-1.70
2019-01-21T10:49:08.768Z,-1.69
2019-01-21T10:52:36.273Z,-1.32
2019-01-21T10:56:03.780Z,-2.82
2019-01-21T10:59:13.848Z,-0.88
2019-01-21T11:02:23.548Z,-1.78
2019-01-21T11:05:33.287Z,-0.58
2019-01-21T11:09:00.781Z,-0.68
2019-01-21T11:12:10.508Z,-0.39
2019-01-21T11:15:20.235Z,-0.28
2019-01-21T11:18:47.742Z,-0.23
2019-01-21T11:21:57.447Z,0.03
2019-01-21T11:25:07.175Z,-1.56
2019-01-21T11:28:34.665Z,0.40
2019-01-21T11:32:02.184Z,-1.43
2019-01-21T11:35:11.911Z,0.97
2019-01-21T11:38:21.901Z,1.04
2019-01-21T11:41:04.969Z,1.74
2019-01-21T11:44:32.478Z,1.02
2019-01-21T11:47:42.176Z,1.94
2019-01-21T11:51:09.750Z,0.14
2019-01-21T11:54:37.311Z,2.28
2019-01-21T11:58:04.811Z,1.91
2019-01-21T12:01:32.294Z,2.35
2019-01-21T12:04:42.051Z,2.61
2019-01-21T12:07:51.804Z,1.63
2019-01-21T12:11:19.296Z,2.92
2019-01-21T12:14:46.809Z,2.02
2019-01-21T12:18:14.311Z,3.55
2019-01-21T12:21:41.793Z,3.57
2019-01-21T12:24:30.667Z,2.62
2019-01-21T12:27:40.389Z,4.14
2019-01-21T12:30:50.137Z,4.72
2019-01-21T12:34:17.641Z,5.12
2019-01-21T12:37:45.136Z,5.44
2019-01-21T12:40:46.642Z,5.71
2019-01-21T12:44:14.187Z,5.97
2019-01-21T12:47:23.883Z,6.25
2019-01-21T12:50:51.381Z,6.39
2019-01-21T12:54:01.081Z,6.42
2019-01-21T12:57:28.580Z,6.84
2019-01-21T13:00:56.061Z,7.12
2019-01-21T13:04:23.585Z,7.02
2019-01-21T13:07:33.300Z,7.26
2019-01-21T13:10:43.013Z,7.12
2019-01-21T13:13:52.712Z,6.94
2019-01-21T13:17:20.208Z,5.87
2019-01-21T13:20:30.709Z,7.01
2019-01-21T13:23:41.353Z,7.40
2019-01-21T13:26:51.073Z,7.30
2019-01-21T13:30:02.381Z,5.87
2019-01-21T13:33:12.221Z,6.62
2019-01-21T13:36:21.989Z,6.44
2019-01-21T13:39:31.689Z,4.98
2019-01-21T13:42:14.919Z,6.69
2019-01-21T13:45:42.391Z,6.65
2019-01-21T13:48:52.109Z,6.29
2019-01-21T13:52:01.805Z,6.53
2019-01-21T13:55:11.531Z,6.68
2019-01-21T13:58:21.315Z,6.81
2019-01-21T14:01:48.793Z,7.06
2019-01-21T14:05:16.291Z,7.44
2019-01-21T14:08:43.795Z,7.81
2019-01-21T14:12:11.292Z,7.89
2019-01-21T14:15:38.775Z,6.73
2019-01-21T14:19:06.581Z,6.51
2019-01-21T14:22:34.064Z,7.86
2019-01-21T14:26:01.557Z,7.74
2019-01-21T14:29:03.055Z,8.15
2019-01-21T14:32:12.754Z,8.36
2019-01-21T14:35:40.256Z,8.38
2019-01-21T14:38:49.999Z,7.68
2019-01-21T14:41:57.943Z,7.28
2019-01-21T14:45:25.445Z,7.10
2019-01-21T14:48:53.192Z,7.09
2019-01-21T14:52:02.893Z,6.28
2019-01-21T14:55:30.415Z,6.57
2019-01-21T14:58:57.911Z,6.80
2019-01-21T15:02:25.404Z,6.21
2019-01-21T15:05:35.086Z,5.38
2019-01-21T15:08:44.857Z,5.79
2019-01-21T15:12:12.376Z,7.13
2019-01-21T15:15:39.931Z,5.72
2019-01-21T15:18:49.692Z,6.00
2019-01-21T15:22:17.240Z,6.10
2019-01-21T15:25:26.973Z,5.35
2019-01-21T15:28:28.115Z,3.74
2019-01-21T15:31:37.897Z,4.99
2019-01-21T15:34:47.912Z,3.57
2019-01-21T15:38:15.854Z,4.33
2019-01-21T15:41:43.460Z,4.07
2019-01-21T15:45:10.987Z,3.79
2019-01-21T15:48:38.500Z,3.56
2019-01-21T15:51:48.199Z,3.34
2019-01-21T15:54:57.931Z,3.05
2019-01-21T15:58:25.413Z,2.81
2019-01-21T16:01:52.911Z,2.62
2019-01-21T16:05:02.616Z,2.36
2019-01-21T16:08:12.324Z,1.44
2019-01-21T16:11:39.830Z,1.88
2019-01-21T16:14:49.550Z,1.75
2019-01-21T16:18:17.034Z,1.60
2019-01-21T16:21:27.097Z,1.49
2019-01-21T16:24:54.565Z,1.28
2019-01-21T16:28:04.301Z,1.01
2019-01-21T16:30:47.191Z,0.85
2019-01-21T16:33:56.949Z,0.59
2019-01-21T16:37:06.727Z,0.43
2019-01-21T16:40:16.431Z,0.23
2019-01-21T16:43:05.313Z,-0.16
2019-01-21T16:45:54.119Z,-0.01
2019-01-21T16:48:42.931Z,-0.13
2019-01-21T16:51:31.737Z,-0.32
2019-01-21T16:54:20.555Z,-0.43
2019-01-21T17:00:17.192Z,-0.71
2019-01-21T17:03:06.010Z,-0.96
2019-01-21T17:05:54.832Z,-1.06
2019-01-21T17:08:43.639Z,-1.14
2019-01-21T17:11:32.455Z,-1.24
2019-01-21T17:14:21.269Z,-3.35
2019-01-21T17:20:00.608Z,-1.41
2019-01-21T17:22:49.401Z,-1.36
2019-01-21T17:25:38.220Z,-1.40
2019-01-21T17:28:27.085Z,-1.49
2019-01-21T17:31:15.899Z,-2.12
2019-01-21T17:34:04.765Z,-2.68
2019-01-21T17:36:53.619Z,-1.64
2019-01-21T17:39:42.420Z,-1.84
2019-01-21T17:42:31.242Z,-2.04
2019-01-21T17:48:29.521Z,-2.29
2019-01-21T17:51:18.386Z,-2.85
2019-01-21T17:57:02.019Z,-2.48
2019-01-21T17:59:50.837Z,-2.49
2019-01-21T18:02:39.656Z,-2.46
2019-01-21T18:08:36.223Z,-2.53
2019-01-21T18:11:25.022Z,-2.68
2019-01-21T18:14:13.834Z,-2.77
2019-01-21T18:17:02.629Z,-3.36
2019-01-21T18:19:51.449Z,-2.93
2019-01-21T18:22:40.501Z,-3.09
2019-01-21T18:25:29.605Z,-3.16
2019-01-21T18:28:18.406Z,-3.34
2019-01-21T18:31:00.237Z,-3.28
2019-01-21T18:33:49.072Z,-3.48
2019-01-21T18:36:57.274Z,-3.47
2019-01-21T18:39:46.513Z,-3.44
2019-01-21T18:45:30.289Z,-3.62
2019-01-21T18:51:26.935Z,-5.54
2019-01-21T18:54:15.902Z,-5.30
2019-01-21T18:57:04.845Z,-4.15
2019-01-21T18:59:53.741Z,-3.99
2019-01-21T19:02:43.406Z,-3.98
2019-01-21T19:05:33.368Z,-3.95
2019-01-21T19:08:41.394Z,-5.28
2019-01-21T19:11:30.445Z,-4.01
2019-01-21T19:14:19.370Z,-4.04
2019-01-21T19:17:08.679Z,-4.29
2019-01-21T19:19:57.487Z,-4.33
2019-01-21T19:22:46.502Z,-4.47
2019-01-21T19:25:35.699Z,-4.57
2019-01-21T19:28:44.043Z,-4.50
2019-01-21T19:31:26.656Z,-5.15
2019-01-21T19:44:35.239Z,-4.98
2019-01-21T19:51:01.268Z,-4.72
2019-01-21T20:03:59.940Z,-6.63
2019-01-21T20:06:57.354Z,-4.78
2019-01-21T20:09:31.359Z,-6.68
2019-01-21T20:12:53.682Z,-5.41
2019-01-21T20:29:07.083Z,-5.77
2019-01-21T20:31:37.247Z,-5.20
2019-01-21T20:35:01.275Z,-5.55
2019-01-21T20:41:40.183Z,-7.43
2019-01-21T20:51:20.058Z,-5.33
2019-01-21T20:54:44.683Z,-5.43
2019-01-21T21:04:27.059Z,-5.55
2019-01-21T21:11:05.564Z,-6.42
2019-01-21T21:14:16.185Z,-5.90
2019-01-21T21:20:22.072Z,-5.96
2019-01-21T21:26:18.799Z,-5.87
2019-01-21T21:29:07.636Z,-6.04
2019-01-21T21:31:49.443Z,-6.88
2019-01-21T21:34:57.384Z,-6.15
2019-01-21T21:37:46.207Z,-6.01
2019-01-21T21:40:35.010Z,-7.73
2019-01-21T21:43:30.699Z,-6.30
2019-01-21T21:46:19.500Z,-6.14
2019-01-21T21:49:08.334Z,-6.89
2019-01-21T21:52:16.768Z,-6.17
2019-01-21T21:55:26.491Z,-6.18
2019-01-21T21:58:15.302Z,-6.25
2019-01-21T22:04:18.869Z,-6.53
2019-01-21T22:07:08.557Z,-6.44
2019-01-21T22:09:57.357Z,-8.03
2019-01-21T22:12:46.175Z,-6.54
2019-01-21T22:15:53.994Z,-6.53
2019-01-21T22:18:42.817Z,-6.53
2019-01-21T22:21:31.608Z,-6.63
2019-01-21T22:24:39.468Z,-6.70
2019-01-21T22:27:28.268Z,-6.78
2019-01-21T22:30:38.004Z,-6.65
2019-01-21T22:33:26.844Z,-6.53
2019-01-21T22:36:15.677Z,-6.85
2019-01-21T22:39:25.400Z,-6.63
2019-01-21T22:42:14.221Z,-6.54
2019-01-21T22:45:22.159Z,-6.67
2019-01-21T22:48:10.975Z,-6.73
2019-01-21T22:50:59.806Z,-6.76
2019-01-21T22:53:48.591Z,-7.20
2019-01-21T22:56:37.399Z,-7.25
2019-01-21T22:59:26.193Z,-7.08
2019-01-21T23:02:15.018Z,-6.98
2019-01-21T23:05:24.739Z,-8.12
2019-01-21T23:08:13.531Z,-6.95
2019-01-21T23:11:02.351Z,-7.01
2019-01-21T23:13:51.151Z,-6.96
2019-01-21T23:16:59.170Z,-7.06
2019-01-21T23:19:47.989Z,-7.02
2019-01-21T23:22:36.792Z,-7.03
2019-01-21T23:25:25.606Z,-6.97
2019-01-21T23:28:08.489Z,-6.98
2019-01-21T23:30:57.295Z,-6.99
2019-01-21T23:33:46.096Z,-7.13
2019-01-21T23:36:34.907Z,-7.05
2019-01-21T23:39:25.422Z,-9.19
2019-01-21T23:42:14.307Z,-7.19
2019-01-21T23:45:25.731Z,-7.17
2019-01-21T23:48:14.548Z,-7.27
2019-01-21T23:54:11.112Z,-7.09
2019-01-21T23:57:00.207Z,-7.87
2019-01-21T23:59:50.742Z,-7.22
